createdAt,value
2023-08-29T00:00:11.571Z,68.12
2023-08-29T00:03:04.635Z,67.80
2023-08-29T00:05:50.084Z,67.36
2023-08-29T00:08:35.781Z,67.71
2023-08-29T00:11:22.289Z,67.15
2023-08-29T00:14:07.590Z,67.48
2023-08-29T00:16:53.036Z,67.25
2023-08-29T00:19:38.962Z,66.79
2023-08-29T00:22:24.859Z,66.95
2023-08-29T00:25:10.338Z,66.20
2023-08-29T00:27:55.746Z,66.06
2023-08-29T00:30:44.574Z,66.49
2023-08-29T00:33:31.192Z,66.06
2023-08-29T00:36:18.668Z,66.23
2023-08-29T00:39:05.091Z,66.21
2023-08-29T00:41:50.977Z,66.43
2023-08-29T00:44:36.828Z,66.50
2023-08-29T00:47:22.818Z,66.24
2023-08-29T00:50:09.860Z,66.76
2023-08-29T00:52:59.656Z,66.58
2023-08-29T00:55:45.176Z,66.71
2023-08-29T00:58:31.418Z,66.67
2023-08-29T01:01:18.584Z,66.48
2023-08-29T01:04:05.323Z,66.74
2023-08-29T01:06:51.512Z,66.67
2023-08-29T01:09:36.862Z,66.22
2023-08-29T01:12:36.566Z,66.15
2023-08-29T01:15:28.851Z,66.00
2023-08-29T01:18:17.121Z,66.11
2023-08-29T01:21:16.123Z,65.84
2023-08-29T01:24:22.032Z,65.28
2023-08-29T01:27:09.259Z,65.43
2023-08-29T01:29:57.310Z,65.45
2023-08-29T01:32:46.095Z,65.08
2023-08-29T01:35:32.778Z,65.41
2023-08-29T01:38:18.979Z,64.83
2023-08-29T01:41:05.439Z,64.49
2023-08-29T01:43:53.158Z,65.01
2023-08-29T01:46:39.566Z,64.69
2023-08-29T01:49:26.264Z,64.92
2023-08-29T01:52:11.928Z,65.16
2023-08-29T01:54:59.786Z,64.92
2023-08-29T01:57:47.664Z,64.63
2023-08-29T02:00:34.358Z,64.61
2023-08-29T02:03:24.506Z,64.71
2023-08-29T02:06:12.312Z,64.89
2023-08-29T02:08:57.643Z,64.50
2023-08-29T02:11:43.659Z,64.32
2023-08-29T02:14:29.612Z,64.03
2023-08-29T02:17:15.582Z,63.71
2023-08-29T02:20:01.312Z,63.89
2023-08-29T02:22:46.937Z,63.16
2023-08-29T02:25:32.987Z,63.74
2023-08-29T02:28:19.044Z,63.40
2023-08-29T02:31:11.492Z,63.57
2023-08-29T02:33:57.258Z,63.35
2023-08-29T02:36:43.868Z,63.41
2023-08-29T02:39:30.205Z,63.31
2023-08-29T02:42:15.970Z,63.48
2023-08-29T02:45:01.765Z,63.72
2023-08-29T02:47:47.744Z,63.69
2023-08-29T02:50:35.046Z,63.50
2023-08-29T02:53:21.919Z,63.71
2023-08-29T02:56:07.296Z,63.86
2023-08-29T02:58:53.487Z,63.33
2023-08-29T03:01:39.611Z,63.34
2023-08-29T03:04:25.270Z,63.22
2023-08-29T03:07:11.110Z,63.57
2023-08-29T03:09:57.060Z,63.58
2023-08-29T03:12:42.973Z,63.52
2023-08-29T03:15:35.837Z,63.55
2023-08-29T03:18:21.190Z,63.76
2023-08-29T03:21:10.800Z,63.71
2023-08-29T03:23:56.902Z,64.01
2023-08-29T03:26:42.279Z,63.76
2023-08-29T03:29:27.679Z,63.73
2023-08-29T03:32:14.006Z,63.88
2023-08-29T03:34:59.869Z,63.38
2023-08-29T03:37:46.116Z,63.68
2023-08-29T03:40:31.853Z,63.49
2023-08-29T03:43:17.433Z,63.58
2023-08-29T03:46:07.663Z,63.62
2023-08-29T03:48:53.253Z,63.48
2023-08-29T03:51:38.700Z,63.36
2023-08-29T03:54:24.187Z,63.42
2023-08-29T03:57:09.796Z,63.29
2023-08-29T03:59:55.462Z,63.79
2023-08-29T04:02:41.541Z,63.72
2023-08-29T04:05:28.568Z,63.49
2023-08-29T04:08:13.842Z,63.36
2023-08-29T04:11:04.670Z,63.37
2023-08-29T04:13:51.047Z,63.73
2023-08-29T04:16:37.558Z,63.36
2023-08-29T04:19:24.214Z,63.55
2023-08-29T04:22:09.905Z,63.62
2023-08-29T04:24:55.328Z,63.58
2023-08-29T04:27:41.136Z,63.36
2023-08-29T04:30:26.720Z,63.37
2023-08-29T04:33:12.309Z,62.82
2023-08-29T04:35:58.062Z,63.27
2023-08-29T04:38:46.396Z,62.91
2023-08-29T04:41:31.757Z,62.54
2023-08-29T04:44:17.611Z,63.04
2023-08-29T04:47:05.094Z,62.86
2023-08-29T04:49:51.060Z,62.07
2023-08-29T04:52:37.705Z,61.69
2023-08-29T04:55:23.405Z,61.55
2023-08-29T04:58:09.940Z,61.07
2023-08-29T05:00:56.260Z,60.31
2023-08-29T05:03:42.722Z,60.37
2023-08-29T05:06:28.417Z,59.74
2023-08-29T05:09:14.774Z,59.69
2023-08-29T05:12:00.650Z,58.66
2023-08-29T05:14:46.356Z,58.35
2023-08-29T05:17:32.038Z,57.50
2023-08-29T05:20:18.490Z,57.18
2023-08-29T05:23:04.351Z,57.04
2023-08-29T05:25:50.752Z,56.42
2023-08-29T05:28:36.394Z,55.54
2023-08-29T05:31:22.850Z,55.19
2023-08-29T05:34:09.002Z,54.74
2023-08-29T05:36:55.046Z,53.69
2023-08-29T05:39:40.934Z,52.78
2023-08-29T05:42:28.548Z,52.99
2023-08-29T05:45:16.603Z,52.74
2023-08-29T05:48:03.145Z,52.56
2023-08-29T05:50:52.551Z,52.32
2023-08-29T05:53:38.476Z,51.08
2023-08-29T05:56:24.583Z,50.81
2023-08-29T05:59:10.045Z,51.26
2023-08-29T06:01:55.870Z,50.75
2023-08-29T06:04:41.697Z,51.27
2023-08-29T06:07:27.787Z,50.37
2023-08-29T06:10:13.879Z,50.52
2023-08-29T06:12:59.995Z,50.56
2023-08-29T06:15:46.691Z,50.39
2023-08-29T06:18:34.552Z,50.42
2023-08-29T06:21:22.000Z,50.05
2023-08-29T06:24:08.321Z,49.94
2023-08-29T06:26:54.012Z,49.55
2023-08-29T06:29:40.426Z,49.44
2023-08-29T06:32:27.214Z,48.38
2023-08-29T06:35:12.905Z,48.99
2023-08-29T06:37:58.138Z,48.66
2023-08-29T06:40:44.005Z,49.13
2023-08-29T06:43:31.301Z,48.93
2023-08-29T06:46:17.495Z,49.04
2023-08-29T06:49:03.769Z,48.92
2023-08-29T06:51:51.220Z,48.78
2023-08-29T06:54:37.758Z,48.48
2023-08-29T06:57:23.282Z,48.45
2023-08-29T07:00:12.181Z,48.27
2023-08-29T07:02:57.796Z,48.18
2023-08-29T07:05:43.084Z,47.71
2023-08-29T07:08:28.589Z,48.31
2023-08-29T07:11:15.255Z,48.43
2023-08-29T07:14:00.840Z,48.81
2023-08-29T07:16:53.558Z,49.23
2023-08-29T07:19:50.034Z,48.56
2023-08-29T07:22:41.782Z,48.47
2023-08-29T07:25:40.175Z,47.89
2023-08-29T07:28:26.369Z,48.07
2023-08-29T07:31:12.275Z,47.71
2023-08-29T07:33:57.652Z,47.10
2023-08-29T07:36:44.382Z,47.28
2023-08-29T07:39:29.879Z,47.47
2023-08-29T07:42:15.661Z,45.96
2023-08-29T07:45:01.561Z,46.05
2023-08-29T07:47:46.916Z,43.80
2023-08-29T07:50:32.405Z,44.77
2023-08-29T07:53:17.890Z,43.60
2023-08-29T07:56:04.425Z,43.49
2023-08-29T07:58:50.680Z,42.36
2023-08-29T08:01:36.523Z,42.47
2023-08-29T08:04:22.366Z,42.64
2023-08-29T08:07:08.105Z,42.67
2023-08-29T08:09:53.424Z,41.88
2023-08-29T08:12:41.292Z,42.01
2023-08-29T08:15:26.803Z,41.83
2023-08-29T08:18:12.374Z,41.71
2023-08-29T08:20:57.820Z,42.14
2023-08-29T08:23:43.348Z,42.55
2023-08-29T08:26:28.813Z,41.61
2023-08-29T08:29:14.362Z,41.67
2023-08-29T08:32:00.174Z,41.82
2023-08-29T08:34:46.031Z,41.09
2023-08-29T08:37:36.230Z,41.25
2023-08-29T08:40:22.045Z,40.77
2023-08-29T08:43:10.788Z,41.09
2023-08-29T08:45:57.900Z,40.77
2023-08-29T08:48:43.962Z,39.86
2023-08-29T08:51:31.861Z,38.86
2023-08-29T08:54:17.390Z,38.01
2023-08-29T08:57:02.686Z,38.74
2023-08-29T08:59:48.228Z,38.65
2023-08-29T09:02:35.304Z,38.01
2023-08-29T09:05:22.012Z,37.05
2023-08-29T09:08:08.186Z,36.94
2023-08-29T09:10:54.580Z,37.89
2023-08-29T09:13:50.048Z,38.48
2023-08-29T09:16:39.373Z,38.89
2023-08-29T09:19:26.057Z,38.34
2023-08-29T09:22:12.003Z,38.38
2023-08-29T09:25:04.312Z,38.12
2023-08-29T09:27:50.386Z,38.11
2023-08-29T09:30:42.652Z,38.65
2023-08-29T09:33:28.810Z,37.94
2023-08-29T09:36:14.641Z,37.92
2023-08-29T09:39:00.188Z,38.25
2023-08-29T09:41:59.535Z,37.95
2023-08-29T09:44:45.206Z,36.80
2023-08-29T09:47:30.637Z,37.92
2023-08-29T09:50:16.358Z,37.16
2023-08-29T09:53:02.904Z,37.85
2023-08-29T09:55:55.282Z,37.98
2023-08-29T09:58:42.646Z,38.29
2023-08-29T10:01:29.073Z,37.68
2023-08-29T10:04:22.270Z,35.64
2023-08-29T10:07:13.442Z,36.58
2023-08-29T10:10:00.372Z,36.61
2023-08-29T10:12:47.296Z,36.30
2023-08-29T10:15:38.646Z,35.58
2023-08-29T10:18:27.128Z,35.53
2023-08-29T10:21:13.966Z,35.50
2023-08-29T10:24:00.856Z,35.06
2023-08-29T10:26:47.134Z,34.56
2023-08-29T10:29:33.858Z,35.03
2023-08-29T10:32:21.095Z,34.84
2023-08-29T10:35:07.839Z,34.42
2023-08-29T10:37:54.041Z,35.20
2023-08-29T10:40:40.374Z,35.32
2023-08-29T10:43:27.288Z,35.81
2023-08-29T10:46:15.402Z,35.21
2023-08-29T10:49:00.665Z,34.69
2023-08-29T10:52:12.595Z,34.73
2023-08-29T10:55:22.465Z,33.94
2023-08-29T10:58:38.874Z,34.32
2023-08-29T11:01:28.391Z,34.42
2023-08-29T11:04:17.624Z,34.74
2023-08-29T11:07:03.675Z,34.42
2023-08-29T11:09:49.694Z,34.35
2023-08-29T11:12:35.438Z,34.37
2023-08-29T11:15:22.381Z,34.27
2023-08-29T11:18:28.381Z,34.53
2023-08-29T11:21:18.981Z,34.92
2023-08-29T11:26:58.544Z,35.43
2023-08-29T11:29:45.099Z,35.68
2023-08-29T11:32:31.593Z,35.44
2023-08-29T11:35:17.300Z,35.06
2023-08-29T11:38:03.177Z,35.76
2023-08-29T11:40:56.205Z,35.77
2023-08-29T11:44:33.966Z,35.24
2023-08-29T11:47:02.777Z,34.77
2023-08-29T11:49:57.144Z,34.54
2023-08-29T11:52:43.081Z,33.87
2023-08-29T11:55:32.421Z,33.78
2023-08-29T11:58:18.848Z,33.87
2023-08-29T12:01:06.115Z,34.64
2023-08-29T12:03:52.233Z,34.63
2023-08-29T12:06:38.025Z,34.76
2023-08-29T12:09:24.584Z,34.73
2023-08-29T12:12:33.933Z,34.22
2023-08-29T12:15:30.900Z,34.11
2023-08-29T12:18:26.597Z,34.76
2023-08-29T12:21:19.908Z,34.48
2023-08-29T12:24:11.044Z,34.58
2023-08-29T12:26:56.593Z,34.89
2023-08-29T12:29:42.455Z,34.50
2023-08-29T12:32:29.452Z,33.66
2023-08-29T12:35:16.972Z,34.01
2023-08-29T12:38:03.401Z,34.30
2023-08-29T12:40:48.979Z,33.81
2023-08-29T12:43:34.219Z,33.81
2023-08-29T12:46:20.593Z,33.98
2023-08-29T12:49:06.363Z,33.29
2023-08-29T12:51:52.146Z,33.54
2023-08-29T12:54:38.268Z,32.98
2023-08-29T12:57:24.228Z,33.71
2023-08-29T13:00:11.592Z,33.81
2023-08-29T13:02:58.704Z,32.70
2023-08-29T13:05:44.925Z,32.87
2023-08-29T13:08:30.409Z,32.54
2023-08-29T13:11:16.124Z,33.24
2023-08-29T13:14:02.224Z,33.69
2023-08-29T13:16:47.997Z,32.96
2023-08-29T13:19:34.885Z,32.81
2023-08-29T13:22:22.093Z,32.65
2023-08-29T13:25:11.842Z,33.67
2023-08-29T13:27:58.988Z,33.04
2023-08-29T13:30:44.877Z,34.11
2023-08-29T13:33:32.228Z,34.47
2023-08-29T13:36:18.047Z,34.27
2023-08-29T13:39:03.884Z,33.05
2023-08-29T13:41:49.956Z,33.10
2023-08-29T13:44:36.209Z,32.98
2023-08-29T13:47:21.947Z,32.74
2023-08-29T13:50:08.858Z,32.97
2023-08-29T13:52:57.163Z,33.26
2023-08-29T13:55:43.429Z,33.19
2023-08-29T13:58:29.280Z,32.94
2023-08-29T14:01:14.838Z,33.61
2023-08-29T14:04:00.590Z,33.41
2023-08-29T14:06:45.905Z,33.80
2023-08-29T14:09:31.603Z,33.83
2023-08-29T14:12:17.109Z,34.25
2023-08-29T14:15:03.009Z,34.12
2023-08-29T14:17:51.798Z,34.13
2023-08-29T14:20:45.671Z,34.00
2023-08-29T14:23:31.341Z,33.99
2023-08-29T14:26:17.025Z,33.88
2023-08-29T14:29:02.721Z,34.31
2023-08-29T14:31:48.564Z,34.64
2023-08-29T14:34:34.107Z,34.63
2023-08-29T14:37:19.716Z,33.97
2023-08-29T14:40:06.276Z,33.54
2023-08-29T14:42:51.732Z,34.41
2023-08-29T14:45:41.320Z,34.13
2023-08-29T14:48:27.012Z,34.45
2023-08-29T14:51:12.675Z,33.91
2023-08-29T14:54:03.535Z,34.23
2023-08-29T14:56:49.520Z,33.82
2023-08-29T14:59:35.575Z,33.96
2023-08-29T15:02:21.282Z,34.67
2023-08-29T15:05:07.593Z,34.65
2023-08-29T15:07:53.480Z,35.29
2023-08-29T15:10:39.102Z,36.02
2023-08-29T15:13:29.626Z,36.54
2023-08-29T15:16:17.379Z,36.51
2023-08-29T15:19:03.514Z,38.12
2023-08-29T15:21:49.257Z,38.80
2023-08-29T15:24:34.910Z,40.77
2023-08-29T15:27:21.050Z,42.08
2023-08-29T15:30:09.424Z,42.34
2023-08-29T15:32:56.759Z,42.52
2023-08-29T15:35:46.982Z,42.60
2023-08-29T15:38:34.922Z,42.55
2023-08-29T15:41:22.945Z,42.43
2023-08-29T15:44:08.748Z,43.96
2023-08-29T15:46:55.114Z,45.90
2023-08-29T15:49:41.816Z,46.87
2023-08-29T15:52:27.749Z,48.28
2023-08-29T15:55:13.737Z,48.12
2023-08-29T15:58:00.539Z,48.13
2023-08-29T16:00:46.256Z,48.86
2023-08-29T16:03:32.356Z,48.57
2023-08-29T16:06:18.669Z,47.63
2023-08-29T16:09:04.573Z,48.36
2023-08-29T16:11:51.633Z,48.60
2023-08-29T16:14:37.349Z,48.94
2023-08-29T16:17:23.057Z,48.70
2023-08-29T16:20:12.890Z,47.73
2023-08-29T16:22:59.482Z,43.98
2023-08-29T16:25:45.138Z,42.70
2023-08-29T16:28:31.738Z,42.51
2023-08-29T16:31:17.230Z,42.71
2023-08-29T16:34:03.655Z,42.87
2023-08-29T16:36:49.496Z,42.93
2023-08-29T16:39:34.984Z,43.33
2023-08-29T16:42:21.112Z,43.79
2023-08-29T16:45:07.686Z,43.98
2023-08-29T16:47:55.522Z,44.41
2023-08-29T16:50:41.405Z,43.79
2023-08-29T16:53:27.153Z,44.06
2023-08-29T16:56:13.002Z,44.15
2023-08-29T16:59:00.263Z,44.72
2023-08-29T17:01:45.840Z,45.03
2023-08-29T17:04:31.459Z,47.42
2023-08-29T17:07:17.062Z,49.25
2023-08-29T17:10:02.979Z,50.71
2023-08-29T17:12:48.555Z,51.55
2023-08-29T17:15:34.209Z,52.99
2023-08-29T17:18:23.013Z,53.03
2023-08-29T17:21:08.704Z,55.08
2023-08-29T17:23:54.284Z,53.22
2023-08-29T17:26:40.938Z,53.13
2023-08-29T17:29:27.162Z,53.02
2023-08-29T17:32:12.934Z,52.33
2023-08-29T17:34:59.167Z,52.46
2023-08-29T17:37:45.626Z,52.88
2023-08-29T17:40:31.159Z,52.16
2023-08-29T17:43:16.513Z,52.38
2023-08-29T17:46:03.586Z,51.31
2023-08-29T17:48:50.076Z,52.44
2023-08-29T17:51:36.606Z,52.47
2023-08-29T17:54:22.423Z,52.72
2023-08-29T17:57:08.251Z,53.63
2023-08-29T17:59:55.730Z,53.44
2023-08-29T18:02:41.852Z,53.65
2023-08-29T18:05:27.842Z,54.15
2023-08-29T18:08:14.092Z,54.10
2023-08-29T18:11:00.029Z,54.78
2023-08-29T18:13:46.250Z,54.76
2023-08-29T18:16:31.756Z,55.74
2023-08-29T18:19:18.199Z,56.00
2023-08-29T18:22:04.117Z,55.61
2023-08-29T18:24:49.789Z,56.47
2023-08-29T18:27:36.231Z,56.88
2023-08-29T18:30:22.326Z,57.46
2023-08-29T18:33:08.277Z,56.06
2023-08-29T18:35:54.317Z,55.57
2023-08-29T18:38:40.214Z,55.51
2023-08-29T18:41:26.019Z,56.01
2023-08-29T18:44:11.999Z,56.02
2023-08-29T18:46:57.409Z,55.38
2023-08-29T18:49:43.312Z,55.52
2023-08-29T18:52:29.731Z,55.47
2023-08-29T18:55:15.410Z,55.54
2023-08-29T18:58:00.702Z,55.75
2023-08-29T19:00:49.080Z,55.33
2023-08-29T19:03:35.407Z,55.93
2023-08-29T19:06:21.840Z,56.32
2023-08-29T19:09:07.905Z,55.99
2023-08-29T19:11:53.701Z,56.19
2023-08-29T19:14:40.021Z,56.32
2023-08-29T19:17:26.869Z,56.73
2023-08-29T19:20:12.537Z,56.51
2023-08-29T19:22:58.521Z,56.29
2023-08-29T19:25:43.809Z,56.56
2023-08-29T19:28:29.075Z,56.79
2023-08-29T19:31:16.420Z,56.95
2023-08-29T19:34:02.080Z,56.73
2023-08-29T19:36:47.598Z,57.71
2023-08-29T19:39:33.438Z,57.39
2023-08-29T19:42:19.212Z,57.43
2023-08-29T19:45:05.452Z,57.67
2023-08-29T19:47:52.169Z,57.60
2023-08-29T19:50:38.015Z,58.11
2023-08-29T19:53:24.096Z,57.75
2023-08-29T19:56:15.925Z,58.06
2023-08-29T19:59:04.697Z,57.68
2023-08-29T20:01:51.052Z,57.93
2023-08-29T20:04:36.785Z,58.70
2023-08-29T20:07:23.158Z,58.92
2023-08-29T20:10:09.208Z,59.56
2023-08-29T20:12:55.417Z,59.24
2023-08-29T20:15:45.420Z,59.20
2023-08-29T20:18:31.389Z,59.55
2023-08-29T20:21:18.160Z,60.02
2023-08-29T20:24:05.004Z,60.75
2023-08-29T20:26:51.796Z,61.49
2023-08-29T20:29:37.534Z,62.38
2023-08-29T20:32:23.760Z,62.80
2023-08-29T20:35:09.578Z,62.58
2023-08-29T20:37:58.765Z,62.57
2023-08-29T20:40:44.549Z,61.78
2023-08-29T20:43:31.246Z,61.59
2023-08-29T20:46:17.163Z,63.37
2023-08-29T20:49:03.512Z,65.03
2023-08-29T20:51:49.551Z,66.44
2023-08-29T20:54:36.713Z,66.15
2023-08-29T20:57:22.732Z,66.79
2023-08-29T21:00:09.252Z,67.78
2023-08-29T21:02:56.288Z,68.45
2023-08-29T21:05:42.373Z,68.94
2023-08-29T21:08:28.726Z,68.51
2023-08-29T21:11:14.394Z,68.94
2023-08-29T21:14:00.172Z,69.53
2023-08-29T21:16:47.385Z,69.42
2023-08-29T21:19:33.212Z,69.30
2023-08-29T21:22:19.443Z,69.93
2023-08-29T21:25:05.969Z,69.79
2023-08-29T21:27:52.179Z,69.30
2023-08-29T21:30:40.397Z,69.52
2023-08-29T21:33:25.892Z,69.83
2023-08-29T21:36:11.640Z,69.69
2023-08-29T21:39:03.420Z,69.89
2023-08-29T21:41:49.496Z,69.48
2023-08-29T21:44:35.042Z,69.85
2023-08-29T21:47:20.961Z,69.88
2023-08-29T21:50:08.079Z,70.21
2023-08-29T21:52:54.024Z,70.79
2023-08-29T21:55:41.899Z,70.84
2023-08-29T21:58:27.800Z,70.59
2023-08-29T22:01:13.425Z,71.00
2023-08-29T22:03:58.956Z,70.96
2023-08-29T22:06:44.817Z,70.60
2023-08-29T22:09:30.171Z,71.11
2023-08-29T22:12:15.627Z,71.68
2023-08-29T22:15:00.982Z,71.54
2023-08-29T22:17:46.489Z,70.98
2023-08-29T22:20:32.505Z,71.04
2023-08-29T22:23:17.952Z,71.61
2023-08-29T22:26:09.838Z,71.46
2023-08-29T22:28:55.487Z,71.79
2023-08-29T22:31:41.390Z,71.38
2023-08-29T22:34:27.625Z,71.17
2023-08-29T22:37:17.080Z,71.07
2023-08-29T22:40:03.372Z,71.17
2023-08-29T22:42:49.698Z,70.80
2023-08-29T22:45:35.231Z,71.23
2023-08-29T22:48:20.980Z,71.40
2023-08-29T22:51:07.746Z,71.17
2023-08-29T22:53:53.974Z,71.40
2023-08-29T22:56:39.835Z,71.84
2023-08-29T22:59:27.221Z,72.20
2023-08-29T23:02:13.608Z,72.51
2023-08-29T23:04:59.314Z,72.82
2023-08-29T23:07:45.888Z,72.81
2023-08-29T23:10:32.998Z,73.13
2023-08-29T23:13:19.782Z,72.67
2023-08-29T23:16:05.753Z,72.61
2023-08-29T23:18:52.203Z,72.04
2023-08-29T23:21:39.058Z,71.75
2023-08-29T23:24:25.935Z,71.38
2023-08-29T23:27:12.540Z,71.70
2023-08-29T23:29:59.652Z,71.77
2023-08-29T23:32:49.216Z,72.02
2023-08-29T23:35:35.367Z,72.36
2023-08-29T23:38:21.668Z,72.93
2023-08-29T23:41:08.459Z,73.11
2023-08-29T23:43:55.539Z,73.44
2023-08-29T23:46:42.453Z,73.48
2023-08-29T23:49:29.032Z,73.26
2023-08-29T23:52:15.009Z,73.14
2023-08-29T23:55:00.473Z,73.74
